Time;durP1;ratioP1;P1;durP2;ratioP2;P2;SDS_P1;SDS_P2;PMS_P1;PMS_P2;Temp;Humidity;BMP_temperature;BMP_pressure;BME280_temperature;BME280_humidity;BME280_pressure;Samples;Min_cycle;Max_cycle;Signal;HPM_P1;HPM_P2
2021/01/29 00:00:35;;;;;;;1.73;1.00;;;8.80;99.90;;;;;;6220898;23;19999;-79
2021/01/29 00:03:03;;;;;;;1.40;1.00;;;8.80;99.90;;;;;;6194939;23;19996;-79
2021/01/29 00:05:51;;;;;;;1.15;1.00;;;8.80;99.90;;;;;;6221331;23;20008;-79
2021/01/29 00:08:18;;;;;;;1.13;0.93;;;8.80;99.90;;;;;;6220593;23;20001;-78
2021/01/29 00:10:43;;;;;;;1.10;1.00;;;8.70;99.90;;;;;;6221309;23;20031;-78
2021/01/29 00:13:10;;;;;;;1.63;1.10;;;8.70;99.90;;;;;;6219285;23;20005;-78
2021/01/29 00:15:36;;;;;;;1.67;0.80;;;8.70;99.90;;;;;;6218674;23;20498;-78
2021/01/29 00:18:02;;;;;;;1.35;0.90;;;8.70;99.90;;;;;;6217600;23;20004;-77
2021/01/29 00:20:29;;;;;;;4.28;1.48;;;8.60;99.90;;;;;;6215642;23;20005;-75
2021/01/29 00:22:56;;;;;;;1.42;1.20;;;8.60;99.90;;;;;;6215854;23;20007;-76
2021/01/29 00:25:26;;;;;;;2.53;1.10;;;8.50;99.90;;;;;;6214245;23;20062;-77
2021/01/29 00:27:52;;;;;;;1.85;1.20;;;8.50;99.90;;;;;;6215407;23;20004;-77
2021/01/29 00:30:20;;;;;;;2.38;1.30;;;8.40;99.90;;;;;;6217391;23;20519;-78
2021/01/29 00:32:45;;;;;;;2.08;1.33;;;8.30;99.90;;;;;;6217378;23;20008;-78
2021/01/29 00:35:13;;;;;;;1.50;1.20;;;8.30;99.90;;;;;;6215951;23;20028;-78
2021/01/29 00:37:38;;;;;;;2.00;1.17;;;8.20;99.90;;;;;;6216218;23;20031;-78
2021/01/29 00:40:05;;;;;;;1.23;1.00;;;8.20;99.90;;;;;;6218343;23;20008;-78
2021/01/29 00:42:31;;;;;;;1.15;1.00;;;8.20;99.90;;;;;;6216814;23;20001;-78
2021/01/29 00:44:57;;;;;;;1.65;1.10;;;8.10;99.90;;;;;;6191589;23;20000;-78
2021/01/29 00:47:22;;;;;;;1.30;0.90;;;8.10;99.90;;;;;;6218578;23;20004;-78
2021/01/29 00:49:48;;;;;;;6.00;1.23;;;8.10;99.90;;;;;;6216577;23;20005;-78
2021/01/29 00:52:13;;;;;;;1.75;0.95;;;8.10;99.90;;;;;;6217248;23;20054;-78
2021/01/29 00:54:39;;;;;;;1.77;1.25;;;8.00;99.90;;;;;;6218988;23;20055;-78
2021/01/29 00:57:04;;;;;;;1.77;1.08;;;8.00;99.90;;;;;;6217510;23;20000;-78
2021/01/29 00:59:30;;;;;;;4.68;1.50;;;7.90;99.90;;;;;;6218442;23;20332;-79
2021/01/29 01:01:55;;;;;;;1.23;0.95;;;7.90;99.90;;;;;;6218806;23;20117;-79
2021/01/29 01:04:21;;;;;;;1.00;0.90;;;7.90;99.90;;;;;;6219583;23;20023;-78
2021/01/29 01:06:47;;;;;;;1.40;1.10;;;7.80;99.90;;;;;;6192903;23;20067;-79
2021/01/29 01:09:12;;;;;;;1.63;1.08;;;7.80;99.90;;;;;;6219662;23;20012;-78
2021/01/29 01:11:38;;;;;;;1.08;0.98;;;7.80;99.90;;;;;;6219262;23;20009;-78
2021/01/29 01:14:05;;;;;;;1.50;0.93;;;7.90;99.90;;;;;;6219605;23;20004;-79
2021/01/29 01:16:30;;;;;;;1.75;1.25;;;7.90;99.90;;;;;;6217759;23;20015;-79
2021/01/29 01:18:56;;;;;;;1.52;0.80;;;7.90;99.90;;;;;;6225130;23;20005;-78
2021/01/29 01:21:22;;;;;;;1.63;1.00;;;7.90;99.90;;;;;;6226560;23;20000;-77
2021/01/29 01:23:48;;;;;;;1.13;0.90;;;7.90;99.90;;;;;;6226672;23;20005;-77
2021/01/29 01:26:13;;;;;;;1.98;1.00;;;7.80;99.90;;;;;;6226632;23;20005;-78
2021/01/29 01:28:39;;;;;;;1.42;0.93;;;7.80;99.90;;;;;;6228595;23;20078;-78
2021/01/29 01:31:04;;;;;;;1.60;1.00;;;7.80;99.90;;;;;;6201757;23;20005;-78
2021/01/29 01:33:30;;;;;;;3.03;1.58;;;7.80;99.90;;;;;;6227387;23;20008;-78
2021/01/29 01:35:55;;;;;;;2.30;1.42;;;7.70;99.90;;;;;;6200918;23;20048;-78
2021/01/29 01:38:21;;;;;;;2.85;2.40;;;7.70;99.90;;;;;;6225880;23;20050;-78
2021/01/29 01:40:47;;;;;;;5.22;3.42;;;7.70;99.90;;;;;;6225258;23;20059;-78
2021/01/29 01:43:13;;;;;;;2.83;2.60;;;7.70;99.90;;;;;;6224273;23;20441;-78
2021/01/29 01:45:59;;;;;;;2.42;1.70;;;7.70;99.90;;;;;;6225750;23;20471;-78
2021/01/29 01:48:34;;;;;;;1.60;1.50;;;7.70;99.90;;;;;;6198029;23;20008;-78
2021/01/29 01:51:00;;;;;;;1.45;1.25;;;7.70;99.90;;;;;;6221852;23;20004;-78
2021/01/29 01:53:42;;;;;;;1.35;1.15;;;7.70;99.90;;;;;;6221754;23;19996;-78
2021/01/29 01:56:26;;;;;;;1.30;1.10;;;7.70;99.90;;;;;;6219274;23;20008;-78
2021/01/29 01:58:55;;;;;;;1.60;1.25;;;7.80;99.90;;;;;;6193581;23;20347;-79
2021/01/29 02:01:22;;;;;;;2.28;1.40;;;7.80;99.90;;;;;;6194168;23;20397;-79
2021/01/29 02:03:48;;;;;;;2.47;2.25;;;7.80;99.90;;;;;;6221494;23;20024;-79
2021/01/29 02:06:15;;;;;;;1.10;1.00;;;7.70;99.90;;;;;;6220905;23;20448;-79
2021/01/29 02:08:43;;;;;;;1.77;1.10;;;7.70;99.90;;;;;;6194004;23;20020;-78
2021/01/29 02:11:18;;;;;;;1.45;1.27;;;7.70;99.90;;;;;;6221272;23;20067;-79
2021/01/29 02:13:43;;;;;;;1.27;1.10;;;7.80;99.90;;;;;;6195140;23;20523;-79
2021/01/29 02:16:18;;;;;;;1.38;1.17;;;7.80;99.90;;;;;;6195597;23;20005;-78
2021/01/29 02:19:01;;;;;;;2.05;1.05;;;7.80;99.90;;;;;;6221518;23;19993;-79
2021/01/29 02:21:58;;;;;;;1.60;1.08;;;7.80;99.90;;;;;;6194387;23;20055;-79
2021/01/29 02:24:29;;;;;;;1.02;0.93;;;7.80;99.90;;;;;;6194583;23;20063;-79
2021/01/29 02:27:32;;;;;;;1.33;1.08;;;7.80;99.90;;;;;;6220899;23;19993;-79
2021/01/29 02:30:21;;;;;;;2.63;1.52;;;7.80;99.90;;;;;;6193531;23;20032;-79
2021/01/29 02:32:47;;;;;;;3.80;2.50;;;7.90;99.90;;;;;;6203604;23;20442;-79
2021/01/29 02:35:19;;;;;;;2.45;1.40;;;7.90;99.90;;;;;;6193823;23;20004;-79
2021/01/29 02:38:19;;;;;;;1.33;1.20;;;7.90;99.90;;;;;;6193548;23;20005;-78
2021/01/29 02:41:22;;;;;;;1.40;1.30;;;7.90;99.90;;;;;;6220010;23;20004;-78
2021/01/29 02:44:05;;;;;;;2.42;2.22;;;7.90;99.90;;;;;;6194082;23;20066;-78
2021/01/29 02:46:44;;;;;;;3.50;2.53;;;7.90;99.90;;;;;;6221080;23;20412;-79
2021/01/29 02:49:19;;;;;;;1.10;1.00;;;7.90;99.90;;;;;;6220012;23;20012;-79
2021/01/29 02:52:02;;;;;;;2.33;1.10;;;7.90;99.90;;;;;;6220488;23;20000;-78
2021/01/29 02:54:39;;;;;;;1.23;0.90;;;7.90;99.90;;;;;;6220426;23;20503;-79
2021/01/29 02:57:20;;;;;;;0.63;0.63;;;7.90;99.90;;;;;;6193860;23;20015;-78
2021/01/29 03:00:11;;;;;;;1.95;1.30;;;7.90;99.90;;;;;;6219985;23;20008;-78
2021/01/29 03:02:53;;;;;;;1.55;1.20;;;8.00;99.90;;;;;;6220298;23;20050;-78
2021/01/29 03:05:30;;;;;;;0.60;0.60;;;8.00;99.90;;;;;;6219774;23;20005;-79
2021/01/29 03:08:05;;;;;;;0.95;0.70;;;8.00;99.90;;;;;;6193823;23;20036;-79
2021/01/29 03:10:56;;;;;;;1.08;0.85;;;8.00;99.90;;;;;;6219589;23;20040;-79
2021/01/29 03:13:32;;;;;;;0.60;0.60;;;8.00;99.90;;;;;;6220200;23;20000;-79
2021/01/29 03:16:17;;;;;;;0.80;0.70;;;8.00;99.90;;;;;;6192997;23;20452;-78
2021/01/29 03:18:57;;;;;;;1.40;0.70;;;8.00;99.90;;;;;;6217608;23;20004;-79
2021/01/29 03:21:30;;;;;;;0.60;0.60;;;8.00;99.90;;;;;;6217376;23;20000;-78
2021/01/29 03:24:00;;;;;;;0.63;0.60;;;8.00;99.90;;;;;;6219401;23;20021;-78
2021/01/29 03:26:36;;;;;;;1.50;0.60;;;8.00;99.90;;;;;;6191882;23;20051;-78
2021/01/29 03:29:08;;;;;;;1.42;0.93;;;8.10;99.90;;;;;;6217346;23;20553;-78
2021/01/29 03:31:37;;;;;;;0.73;0.68;;;8.10;99.90;;;;;;6192642;23;20004;-78
2021/01/29 03:34:10;;;;;;;1.60;0.80;;;8.10;99.90;;;;;;6192502;23;20432;-78
2021/01/29 03:36:43;;;;;;;0.70;0.70;;;8.00;99.90;;;;;;6218920;23;20001;-78
2021/01/29 03:39:18;;;;;;;1.85;1.02;;;8.00;99.90;;;;;;6219195;23;19996;-78
2021/01/29 03:41:50;;;;;;;0.65;0.65;;;8.00;99.90;;;;;;6218601;23;20050;-78
2021/01/29 03:44:42;;;;;;;0.68;0.55;;;8.00;99.90;;;;;;6219318;23;20036;-78
2021/01/29 03:47:30;;;;;;;0.57;0.57;;;8.00;99.90;;;;;;6191821;23;20082;-78
2021/01/29 03:50:10;;;;;;;0.50;0.50;;;8.00;99.90;;;;;;6218543;23;20001;-78
2021/01/29 03:53:09;;;;;;;0.63;0.50;;;7.90;99.90;;;;;;6218607;23;20344;-78
2021/01/29 03:55:46;;;;;;;0.60;0.60;;;7.90;99.90;;;;;;6218394;23;20463;-78
2021/01/29 03:58:30;;;;;;;1.73;0.60;;;7.90;99.90;;;;;;6216745;23;20004;-78
2021/01/29 04:01:05;;;;;;;0.68;0.68;;;7.80;99.90;;;;;;6218681;23;20072;-78
2021/01/29 04:03:37;;;;;;;1.35;0.70;;;7.90;99.90;;;;;;6191699;23;20004;-78
2021/01/29 04:06:18;;;;;;;1.30;0.75;;;7.90;99.90;;;;;;6191983;23;20011;-78
2021/01/29 04:09:00;;;;;;;0.60;0.60;;;7.90;99.90;;;;;;6218797;23;20004;-78
2021/01/29 04:11:45;;;;;;;1.30;1.00;;;7.80;99.90;;;;;;6192367;23;20458;-77
2021/01/29 04:14:16;;;;;;;0.60;0.50;;;7.90;99.90;;;;;;6193653;23;20005;-79
2021/01/29 04:16:46;;;;;;;0.85;0.70;;;7.90;99.90;;;;;;6218242;23;20084;-76
2021/01/29 04:19:21;;;;;;;1.95;0.68;;;7.90;99.90;;;;;;6215613;23;20436;-76
2021/01/29 04:22:04;;;;;;;0.88;0.68;;;7.80;99.90;;;;;;6215898;23;20001;-75
2021/01/29 04:24:35;;;;;;;0.70;0.70;;;7.70;99.90;;;;;;6215392;23;20451;-76
2021/01/29 04:27:15;;;;;;;0.90;0.70;;;7.70;99.90;;;;;;6214328;23;20001;-75
2021/01/29 04:29:46;;;;;;;1.52;0.95;;;7.60;99.90;;;;;;6215590;23;20432;-76
2021/01/29 04:32:15;;;;;;;1.55;1.10;;;7.60;99.90;;;;;;6216169;23;20082;-76
2021/01/29 04:34:44;;;;;;;0.77;0.70;;;7.50;99.90;;;;;;6215641;23;20462;-76
2021/01/29 04:37:18;;;;;;;1.55;0.75;;;7.50;99.90;;;;;;6214210;23;20054;-76
2021/01/29 04:39:47;;;;;;;0.88;0.80;;;7.40;99.90;;;;;;6214213;23;20004;-76
2021/01/29 04:42:40;;;;;;;2.08;1.00;;;7.40;99.90;;;;;;6214095;23;20011;-76
2021/01/29 04:45:47;;;;;;;2.03;0.80;;;7.40;99.90;;;;;;6216026;23;20075;-77
2021/01/29 04:48:39;;;;;;;0.60;0.60;;;7.40;99.90;;;;;;6215889;23;20056;-76
2021/01/29 04:51:23;;;;;;;1.33;0.70;;;7.40;99.90;;;;;;6214328;23;20032;-76
2021/01/29 04:54:10;;;;;;;1.95;1.00;;;7.50;99.90;;;;;;6188906;23;20064;-75
2021/01/29 04:57:03;;;;;;;1.60;0.80;;;7.50;99.90;;;;;;6215429;23;20007;-76
2021/01/29 04:59:45;;;;;;;1.17;0.65;;;7.50;99.90;;;;;;6188870;23;20054;-75
2021/01/29 05:02:46;;;;;;;0.80;0.80;;;7.40;99.90;;;;;;6188891;23;20007;-76
2021/01/29 05:05:25;;;;;;;1.63;0.80;;;7.40;99.90;;;;;;6065655;23;20514;-75
2021/01/29 05:08:15;;;;;;;0.80;0.60;;;7.40;99.90;;;;;;6172387;23;20016;-75
2021/01/29 05:11:17;;;;;;;1.48;0.70;;;7.40;99.90;;;;;;6261416;22;20012;-76
2021/01/29 05:13:58;;;;;;;1.05;0.70;;;7.50;99.90;;;;;;6249213;22;20384;-76
2021/01/29 05:16:55;;;;;;;1.65;0.63;;;7.50;99.90;;;;;;6249217;22;20366;-76
2021/01/29 05:19:46;;;;;;;0.55;0.50;;;7.50;99.90;;;;;;6269043;22;20004;-76
2021/01/29 05:22:46;;;;;;;0.93;0.70;;;7.60;99.90;;;;;;6244272;23;20003;-76
2021/01/29 05:25:38;;;;;;;3.40;0.50;;;7.60;99.90;;;;;;6244104;23;20007;-76
2021/01/29 05:28:24;;;;;;;1.75;1.08;;;7.60;99.90;;;;;;6246047;23;20008;-76
2021/01/29 05:31:27;;;;;;;1.10;0.70;;;7.70;99.90;;;;;;6245718;22;20008;-76
2021/01/29 05:34:06;;;;;;;1.43;0.67;;;7.60;99.90;;;;;;6244178;23;20089;-76
2021/01/29 05:37:08;;;;;;;0.90;0.60;;;7.60;99.90;;;;;;6245849;23;20019;-76
2021/01/29 05:40:31;;;;;;;1.23;0.70;;;7.60;99.90;;;;;;6247643;22;20004;-76
2021/01/29 05:43:14;;;;;;;1.67;0.90;;;7.70;99.90;;;;;;6096253;23;20426;-76
2021/01/29 05:45:50;;;;;;;;;;;7.70;99.90;;;;;;6096779;23;20058;-76
2021/01/29 05:48:19;;;;;;;0.88;0.63;;;7.80;99.90;;;;;;6195236;23;19978;-76
2021/01/29 05:51:11;;;;;;;1.88;0.63;;;7.70;99.90;;;;;;6247344;22;20004;-76
2021/01/29 05:54:04;;;;;;;3.05;1.73;;;7.80;99.90;;;;;;6247858;23;20395;-75
2021/01/29 05:57:02;;;;;;;3.05;1.58;;;7.80;99.90;;;;;;6245854;23;20011;-75
2021/01/29 05:59:52;;;;;;;1.25;1.00;;;7.70;99.90;;;;;;6220569;23;20004;-75
2021/01/29 06:03:12;;;;;;;1.38;1.05;;;7.60;99.90;;;;;;6247513;23;19996;-75
2021/01/29 06:05:57;;;;;;;0.90;0.80;;;7.60;99.90;;;;;;6215338;23;20046;-75
2021/01/29 06:08:47;;;;;;;1.63;0.90;;;7.60;99.90;;;;;;6247437;23;20015;-75
2021/01/29 06:11:19;;;;;;;1.10;0.85;;;7.70;99.90;;;;;;6220523;23;20008;-75
2021/01/29 06:14:06;;;;;;;1.00;0.70;;;7.70;99.90;;;;;;6245878;23;20008;-75
2021/01/29 06:17:10;;;;;;;0.63;0.60;;;7.70;99.90;;;;;;6247403;23;19996;-75
2021/01/29 06:20:13;;;;;;;1.23;0.60;;;7.70;99.90;;;;;;6220520;23;20107;-76
2021/01/29 06:22:41;;;;;;;2.42;0.80;;;7.80;99.90;;;;;;6247391;23;20450;-76
2021/01/29 06:25:37;;;;;;;1.40;1.00;;;7.80;99.90;;;;;;6220407;23;20036;-76
2021/01/29 06:28:06;;;;;;;1.10;0.60;;;7.80;99.90;;;;;;6245737;23;20008;-76
2021/01/29 06:31:09;;;;;;;1.33;0.50;;;7.70;99.90;;;;;;6247435;22;20054;-76
2021/01/29 06:33:53;;;;;;;5.63;2.13;;;7.60;99.90;;;;;;6245667;23;20347;-76
2021/01/29 06:36:44;;;;;;;5.78;2.38;;;7.60;99.90;;;;;;6220250;23;20312;-76
2021/01/29 06:39:36;;;;;;;6.35;3.75;;;7.50;99.90;;;;;;6220140;22;20343;-76
2021/01/29 06:42:02;;;;;;;0.80;0.80;;;7.50;99.90;;;;;;6220310;23;20399;-76
2021/01/29 06:45:15;;;;;;;2.08;1.00;;;7.50;99.90;;;;;;6220178;23;20007;-75
2021/01/29 06:47:58;;;;;;;9.05;4.47;;;7.40;99.90;;;;;;6233244;23;20050;-76
2021/01/29 06:50:44;;;;;;;;;;;7.40;99.90;;;;;;6247663;22;20028;-76
2021/01/29 06:53:24;;;;;;;7.32;4.13;;;7.40;99.90;;;;;;6220158;23;20239;-76
2021/01/29 06:56:00;;;;;;;2.83;1.45;;;7.40;99.90;;;;;;6247085;23;20004;-76
2021/01/29 06:58:44;;;;;;;2.40;1.63;;;7.50;99.90;;;;;;6247019;23;20004;-76
2021/01/29 07:01:28;;;;;;;1.25;0.90;;;7.50;99.90;;;;;;6246682;22;20020;-76
2021/01/29 07:04:12;;;;;;;0.73;0.70;;;7.50;99.90;;;;;;6246745;23;20004;-76
2021/01/29 07:07:00;;;;;;;1.60;1.23;;;7.50;99.90;;;;;;6246845;23;20131;-76
2021/01/29 07:09:45;;;;;;;2.55;2.05;;;7.50;99.90;;;;;;6219927;23;20012;-76
2021/01/29 07:12:21;;;;;;;0.75;0.60;;;7.40;99.90;;;;;;6247072;23;20008;-76
2021/01/29 07:14:54;;;;;;;1.38;1.02;;;7.40;99.90;;;;;;6219934;23;20016;-76
2021/01/29 07:17:33;;;;;;;0.82;0.80;;;7.40;99.90;;;;;;6247191;23;20507;-75
2021/01/29 07:20:17;;;;;;;2.08;1.02;;;7.40;99.90;;;;;;6219796;23;20011;-76
2021/01/29 07:23:20;;;;;;;0.65;0.65;;;7.40;99.90;;;;;;6246675;23;20000;-76
2021/01/29 07:26:23;;;;;;;0.98;0.70;;;7.40;99.90;;;;;;6246936;23;20008;-76
2021/01/29 07:29:16;;;;;;;3.05;0.60;;;7.40;99.90;;;;;;6244913;22;20055;-75
2021/01/29 07:31:57;;;;;;;1.10;0.70;;;7.30;99.90;;;;;;6246966;23;20083;-77
2021/01/29 07:34:27;;;;;;;1.33;0.80;;;7.30;99.90;;;;;;6219798;23;20000;-75
2021/01/29 07:37:12;;;;;;;3.30;0.80;;;7.30;99.90;;;;;;6246951;23;20000;-75
2021/01/29 07:40:02;;;;;;;0.70;0.70;;;7.30;99.90;;;;;;6246463;22;20049;-75
2021/01/29 07:42:54;;;;;;;1.95;1.08;;;7.30;99.90;;;;;;6246811;23;20054;-75
2021/01/29 07:45:42;;;;;;;1.33;0.82;;;7.30;99.90;;;;;;6219606;23;20444;-75
2021/01/29 07:48:26;;;;;;;1.63;0.73;;;7.30;99.90;;;;;;6219649;23;20447;-75
2021/01/29 07:51:16;;;;;;;0.70;0.70;;;7.40;99.90;;;;;;6246142;22;20008;-75
2021/01/29 07:54:33;;;;;;;1.10;0.80;;;7.40;99.90;;;;;;6220530;23;20008;-75
2021/01/29 07:57:21;;;;;;;3.42;1.20;;;7.40;99.90;;;;;;6219366;23;20035;-75
2021/01/29 08:00:08;;;;;;;2.30;1.45;;;7.60;99.90;;;;;;6219273;23;19997;-75
2021/01/29 08:02:54;;;;;;;3.10;1.75;;;7.60;99.90;;;;;;6246311;23;20071;-75
2021/01/29 08:05:28;;;;;;;2.63;1.40;;;7.70;99.90;;;;;;6246620;23;20010;-76
2021/01/29 08:07:59;;;;;;;2.03;0.80;;;7.80;99.90;;;;;;6219391;23;20004;-75
2021/01/29 08:10:31;;;;;;;2.03;1.20;;;7.80;99.90;;;;;;6246097;22;20099;-75
2021/01/29 08:13:04;;;;;;;2.50;1.80;;;7.90;99.90;;;;;;6244744;23;20004;-74
2021/01/29 08:15:47;;;;;;;;;;;8.00;99.90;;;;;;6246904;23;20002;-75
2021/01/29 08:18:38;;;;;;;3.47;1.08;;;8.10;99.90;;;;;;6246558;23;20247;-75
2021/01/29 08:21:41;;;;;;;1.63;1.10;;;8.00;99.90;;;;;;6244617;22;19996;-75
2021/01/29 08:24:38;;;;;;;2.15;0.80;;;8.10;99.90;;;;;;6244447;23;20054;-75
2021/01/29 08:27:19;;;;;;;2.53;1.20;;;8.10;99.90;;;;;;6246168;23;20004;-75
2021/01/29 08:29:45;;;;;;;2.45;0.95;;;8.10;99.90;;;;;;6219272;23;20336;-75
2021/01/29 08:32:19;;;;;;;1.45;1.10;;;8.20;99.90;;;;;;6219309;23;20004;-75
2021/01/29 08:35:12;;;;;;;2.63;0.90;;;8.20;99.90;;;;;;6219441;23;20400;-75
2021/01/29 08:38:09;;;;;;;3.38;1.15;;;8.30;99.90;;;;;;6246510;23;20003;-75
2021/01/29 08:41:01;;;;;;;2.22;1.20;;;8.30;99.90;;;;;;6246182;22;20445;-75
2021/01/29 08:43:51;;;;;;;1.95;1.00;;;8.40;99.90;;;;;;6229055;23;20443;-75
2021/01/29 08:46:17;;;;;;;2.60;1.50;;;8.50;99.90;;;;;;6244516;23;20000;-75
2021/01/29 08:48:59;;;;;;;3.60;1.33;;;8.50;99.90;;;;;;6219184;23;20007;-75
2021/01/29 08:51:30;;;;;;;4.43;2.50;;;8.60;99.90;;;;;;6244536;23;20008;-75
2021/01/29 08:54:20;;;;;;;2.70;1.67;;;8.60;99.90;;;;;;6244409;23;20012;-75
2021/01/29 08:57:11;;;;;;;5.88;1.48;;;8.70;99.90;;;;;;6245913;23;20015;-75
2021/01/29 08:59:39;;;;;;;2.30;1.10;;;8.70;99.90;;;;;;6219010;23;20026;-75
2021/01/29 09:02:20;;;;;;;1.27;0.90;;;8.80;99.90;;;;;;6244407;23;20046;-75
2021/01/29 09:04:49;;;;;;;3.70;2.55;;;9.10;99.90;;;;;;6244690;23;20015;-75
2021/01/29 09:07:19;;;;;;;2.67;1.60;;;9.40;99.90;;;;;;6246082;23;20004;-75
2021/01/29 09:09:46;;;;;;;1.25;0.80;;;10.10;99.90;;;;;;6244547;22;20087;-75
2021/01/29 09:12:20;;;;;;;2.33;1.00;;;10.60;99.90;;;;;;6249358;23;19996;-75
2021/01/29 09:14:57;;;;;;;0.95;0.70;;;11.20;99.90;;;;;;6246096;23;20079;-75
2021/01/29 09:17:39;;;;;;;1.90;1.00;;;11.70;99.90;;;;;;6247193;23;20049;-75
2021/01/29 09:20:07;;;;;;;1.85;1.00;;;12.20;99.90;;;;;;6246045;22;20000;-75
2021/01/29 09:22:36;;;;;;;1.65;0.50;;;12.30;99.90;;;;;;6218755;23;19997;-75
2021/01/29 09:25:18;;;;;;;1.02;0.70;;;12.10;99.90;;;;;;6245869;23;19996;-75
2021/01/29 09:28:02;;;;;;;0.77;0.68;;;12.20;99.90;;;;;;6245828;23;20000;-75
2021/01/29 09:30:32;;;;;;;2.05;0.60;;;11.70;99.90;;;;;;6218802;23;20011;-75
2021/01/29 09:33:17;;;;;;;1.35;0.47;;;11.50;99.90;;;;;;6245775;23;20004;-74
2021/01/29 09:36:09;;;;;;;2.03;0.70;;;11.20;99.90;;;;;;6245713;23;20005;-76
2021/01/29 09:38:43;;;;;;;0.30;0.30;;;11.00;99.90;;;;;;6169280;23;20008;-75
2021/01/29 09:41:23;;;;;;;0.40;0.40;;;10.90;99.90;;;;;;6245759;22;20011;-75
2021/01/29 09:44:13;;;;;;;0.40;0.40;;;10.90;99.90;;;;;;6244113;23;20054;-75
2021/01/29 09:46:44;;;;;;;0.73;0.40;;;10.70;99.90;;;;;;6246006;23;20017;-75
2021/01/29 09:49:19;;;;;;;0.40;0.40;;;10.60;99.90;;;;;;6218580;22;20008;-74
2021/01/29 09:51:51;;;;;;;0.35;0.35;;;10.50;99.90;;;;;;6218756;23;20012;-73
2021/01/29 09:54:43;;;;;;;0.50;0.50;;;10.40;99.90;;;;;;6218716;23;20462;-74
2021/01/29 09:57:21;;;;;;;2.72;0.50;;;10.30;99.90;;;;;;6243844;23;20011;-74
2021/01/29 10:00:10;;;;;;;0.68;0.60;;;10.30;99.90;;;;;;6245787;22;20101;-73
2021/01/29 10:03:24;;;;;;;0.70;0.50;;;10.30;99.90;;;;;;6244073;23;20448;-74
2021/01/29 10:05:54;;;;;;;0.88;0.57;;;10.30;99.90;;;;;;6153910;23;20130;-74
2021/01/29 10:08:31;;;;;;;2.05;0.70;;;10.40;99.90;;;;;;6243894;23;20452;-73
2021/01/29 10:11:45;;;;;;;0.40;0.40;;;10.40;99.90;;;;;;6243489;23;20347;-74
2021/01/29 10:14:40;;;;;;;0.30;0.30;;;10.30;99.90;;;;;;6212316;23;20004;-74
2021/01/29 10:17:36;;;;;;;0.40;0.40;;;10.30;99.90;;;;;;6217655;23;20019;-74
2021/01/29 10:20:05;;;;;;;0.82;0.40;;;10.30;99.90;;;;;;6218551;23;20004;-74
2021/01/29 10:22:40;;;;;;;1.50;0.47;;;10.30;99.90;;;;;;6246070;23;20489;-73
2021/01/29 10:25:18;;;;;;;0.77;0.52;;;10.40;99.90;;;;;;6247192;23;20117;-74
2021/01/29 10:28:13;;;;;;;0.98;0.68;;;10.50;99.90;;;;;;6248198;23;20000;-74
2021/01/29 10:30:43;;;;;;;0.50;0.50;;;10.60;99.90;;;;;;6245558;23;20004;-74
2021/01/29 10:33:14;;;;;;;0.57;0.55;;;11.00;99.90;;;;;;6220498;23;20439;-74
2021/01/29 10:35:49;;;;;;;1.38;0.70;;;11.20;99.90;;;;;;6247121;23;20317;-75
2021/01/29 10:38:42;;;;;;;0.88;0.65;;;11.30;99.90;;;;;;6220518;23;20000;-74
2021/01/29 10:41:24;;;;;;;1.95;0.70;;;11.60;99.90;;;;;;6220175;23;20006;-74
2021/01/29 10:43:56;;;;;;;2.65;0.70;;;12.00;99.90;;;;;;6220329;23;20000;-74
2021/01/29 10:46:27;;;;;;;0.63;0.47;;;12.20;99.90;;;;;;6220292;23;20008;-74
2021/01/29 10:49:16;;;;;;;1.55;0.70;;;12.50;99.90;;;;;;6220007;22;20056;-74
2021/01/29 10:52:12;;;;;;;0.40;0.40;;;15.10;99.90;;;;;;6246816;23;20006;-75
2021/01/29 10:54:40;;;;;;;1.25;0.60;;;17.40;99.50;;;;;;6247422;23;20004;-74
2021/01/29 10:57:17;;;;;;;0.50;0.50;;;18.80;87.60;;;;;;6220007;23;20011;-74
2021/01/29 11:00:08;;;;;;;0.35;0.35;;;18.40;84.70;;;;;;6246898;22;20071;-75
2021/01/29 11:02:39;;;;;;;1.20;0.60;;;18.30;82.80;;;;;;6221013;23;20332;-75
2021/01/29 11:05:13;;;;;;;1.00;0.60;;;17.90;82.40;;;;;;6246988;23;20000;-75
2021/01/29 11:07:42;;;;;;;0.50;0.50;;;16.70;90.00;;;;;;6246960;23;20000;-74
2021/01/29 11:10:17;;;;;;;0.60;0.60;;;15.00;95.30;;;;;;6240781;22;20047;-79
2021/01/29 11:13:20;;;;;;;1.40;0.70;;;14.30;99.90;;;;;;6254412;23;20019;-78
2021/01/29 11:16:04;;;;;;;1.20;0.82;;;13.80;99.90;;;;;;6250470;23;20016;-78
2021/01/29 11:18:35;;;;;;;1.33;0.70;;;13.10;99.90;;;;;;6252601;22;20024;-78
2021/01/29 11:21:19;;;;;;;0.55;0.55;;;12.80;99.90;;;;;;6229492;22;19999;-78
2021/01/29 11:24:12;;;;;;;0.60;0.50;;;12.50;99.90;;;;;;6223127;23;20001;-78
2021/01/29 11:26:40;;;;;;;0.50;0.50;;;12.60;99.90;;;;;;6245916;23;20005;-78
2021/01/29 11:29:11;;;;;;;0.88;0.60;;;14.30;99.90;;;;;;6221649;23;20000;-78
2021/01/29 11:32:18;;;;;;;0.30;0.30;;;17.20;99.70;;;;;;6243847;23;20063;-78
2021/01/29 11:34:44;;;;;;;7.03;0.70;;;17.80;86.20;;;;;;6220319;23;20015;-78
2021/01/29 11:37:16;;;;;;;1.35;0.60;;;15.60;93.50;;;;;;6220800;23;20035;-78
2021/01/29 11:39:51;;;;;;;0.40;0.40;;;14.60;99.90;;;;;;6218707;23;19993;-78
2021/01/29 11:42:29;;;;;;;0.57;0.45;;;14.50;99.90;;;;;;6220126;23;20001;-78
2021/01/29 11:45:27;;;;;;;0.80;0.70;;;13.80;99.90;;;;;;6219634;23;20056;-78
2021/01/29 11:47:52;;;;;;;3.03;0.70;;;13.20;99.90;;;;;;6221043;23;20119;-78
2021/01/29 11:50:30;;;;;;;1.15;0.50;;;12.70;99.90;;;;;;6246163;23;20379;-78
2021/01/29 11:53:05;;;;;;;1.25;0.77;;;12.60;99.90;;;;;;6219878;23;20001;-78
2021/01/29 11:55:51;;;;;;;0.57;0.52;;;12.60;99.90;;;;;;6243522;23;20096;-78
2021/01/29 11:58:38;;;;;;;0.63;0.50;;;12.90;99.90;;;;;;6221594;23;20391;-79
2021/01/29 12:01:19;;;;;;;0.60;0.60;;;13.20;99.90;;;;;;6220954;23;20424;-78
2021/01/29 12:04:11;;;;;;;1.42;0.50;;;12.70;99.90;;;;;;6216607;23;20055;-77
2021/01/29 12:06:48;;;;;;;1.10;0.63;;;12.70;99.90;;;;;;6218831;23;20027;-78
2021/01/29 12:09:30;;;;;;;0.40;0.40;;;12.70;99.90;;;;;;6219346;23;20004;-78
2021/01/29 12:12:20;;;;;;;0.75;0.52;;;12.50;99.90;;;;;;6222765;23;20008;-78
2021/01/29 12:14:51;;;;;;;2.78;0.55;;;12.20;99.90;;;;;;6247507;23;20019;-78
2021/01/29 12:17:23;;;;;;;2.58;0.70;;;12.00;99.90;;;;;;6249361;23;20004;-78
2021/01/29 12:19:50;;;;;;;0.55;0.43;;;11.90;99.90;;;;;;6249146;22;20099;-78
2021/01/29 12:22:32;;;;;;;0.85;0.60;;;11.90;99.90;;;;;;6248320;23;20046;-77
2021/01/29 12:25:33;;;;;;;1.90;0.80;;;12.70;99.90;;;;;;6221950;23;20007;-77
2021/01/29 12:28:17;;;;;;;1.02;0.77;;;13.40;99.90;;;;;;6248579;23;20067;-77
2021/01/29 12:31:06;;;;;;;2.50;1.45;;;13.10;99.90;;;;;;6221363;23;20083;-78
2021/01/29 12:33:41;;;;;;;0.70;0.63;;;13.10;99.90;;;;;;6248226;23;20001;-78
2021/01/29 12:36:11;;;;;;;1.00;0.50;;;12.80;99.90;;;;;;6220795;23;20343;-78
2021/01/29 12:39:22;;;;;;;0.90;0.60;;;13.70;99.90;;;;;;6247546;23;20004;-78
2021/01/29 12:41:56;;;;;;;1.05;0.68;;;13.90;99.90;;;;;;6239079;23;20000;-77
2021/01/29 12:44:40;;;;;;;0.60;0.60;;;13.20;99.90;;;;;;6247005;23;20004;-78
2021/01/29 12:47:19;;;;;;;1.85;1.20;;;12.80;99.90;;;;;;6245636;23;20007;-78
2021/01/29 12:49:59;;;;;;;5.13;0.75;;;13.00;99.90;;;;;;6245729;22;20027;-78
2021/01/29 12:52:30;;;;;;;0.43;0.43;;;12.90;99.90;;;;;;6248444;23;20028;-78
2021/01/29 12:55:17;;;;;;;0.70;0.60;;;13.80;99.90;;;;;;6247656;23;20382;-78
2021/01/29 12:57:56;;;;;;;1.85;0.50;;;14.80;99.90;;;;;;6220665;23;20054;-78
2021/01/29 13:00:33;;;;;;;1.42;0.47;;;14.80;99.90;;;;;;6247864;22;19996;-80
2021/01/29 13:03:24;;;;;;;0.90;0.50;;;14.80;99.90;;;;;;6248847;23;20023;-80
2021/01/29 13:06:00;;;;;;;1.67;0.63;;;14.00;99.90;;;;;;6249207;23;20095;-79
2021/01/29 13:08:59;;;;;;;1.10;0.60;;;13.10;99.90;;;;;;6251040;23;20039;-79
2021/01/29 13:11:31;;;;;;;0.90;0.50;;;12.50;99.90;;;;;;6223209;23;20064;-80
2021/01/29 13:14:06;;;;;;;0.60;0.60;;;12.10;99.90;;;;;;6250656;23;19996;-79
2021/01/29 13:16:49;;;;;;;1.00;0.60;;;11.70;99.90;;;;;;6223540;23;20008;-79
2021/01/29 13:19:27;;;;;;;0.88;0.68;;;11.50;99.90;;;;;;6250933;22;20027;-80
2021/01/29 13:21:56;;;;;;;0.73;0.70;;;11.50;99.90;;;;;;6225391;23;20000;-80
2021/01/29 13:24:30;;;;;;;1.27;0.50;;;11.50;99.90;;;;;;6251171;23;20000;-80
2021/01/29 13:27:07;;;;;;;1.58;0.77;;;11.60;99.90;;;;;;6224953;23;20008;-80
2021/01/29 13:29:34;;;;;;;0.50;0.50;;;13.10;99.90;;;;;;6251573;22;20035;-80
2021/01/29 13:32:11;;;;;;;1.13;0.80;;;15.10;99.90;;;;;;6250609;23;20008;-80
2021/01/29 13:34:41;;;;;;;4.15;1.63;;;14.70;99.90;;;;;;6224993;23;20015;-80
2021/01/29 13:37:26;;;;;;;1.67;0.80;;;13.50;99.90;;;;;;6224688;23;20083;-80
2021/01/29 13:40:12;;;;;;;3.28;2.28;;;12.60;99.90;;;;;;6251403;22;19992;-79
2021/01/29 13:42:41;;;;;;;1.48;0.98;;;11.90;99.90;;;;;;6222464;23;20443;-79
2021/01/29 13:45:09;;;;;;;1.33;0.82;;;11.40;99.90;;;;;;6223209;23;20026;-80
2021/01/29 13:47:36;;;;;;;1.65;1.02;;;11.20;99.90;;;;;;6251123;23;20443;-79
2021/01/29 13:50:20;;;;;;;1.30;0.70;;;10.90;99.90;;;;;;6225081;23;19996;-80
2021/01/29 13:53:01;;;;;;;1.70;0.80;;;10.90;99.90;;;;;;6224124;23;20066;-79
2021/01/29 13:55:48;;;;;;;1.10;0.63;;;10.80;99.90;;;;;;6253684;23;20079;-80
2021/01/29 13:58:25;;;;;;;1.85;1.08;;;10.90;99.90;;;;;;6253858;23;20008;-80
2021/01/29 14:01:02;;;;;;;0.63;0.57;;;10.90;99.90;;;;;;6225916;23;20007;-79